Llanerchymedd, United Kingdom
Current Conditions -  °F | °C
As of 10:09 AM on Tuesday 27 Jan 2015 (Local Time) from EGOV Reporting Station
Rain Showers Rain Showers  
Wind Chill: 40°   Ceiling: 2800
Heat Index: 46°   Visibility: 6mi
Dew Point: 41°   Wind: 15mph
Humidity: 81%   Direction: 230°SW
Pressure: 30.36"   Gusts: NA
Location:  53.33°N, 4.38°W
Report Text: EGOV 271009Z 23013KT 9999 -SHRA SCT019 BKN028 08/05 Q1028 WHT TEMPO BKN028 BLU
Loading
Personal Weather Stations






























Interactive Weather Map New forecast layout! Learn more

10-Day Weather Forecast

Advertisements
Track Severe Weather on mobile